Flight Track Log - Related Links

Times and Time Zones

All times are in EDT time to prevent confusion due to time zone crossing. See the N39503 flight status page for this flight to view local times or setup timezone preferences in your user account.

Time Position Orientation Groundspeed Altitude Reporting Facility
EDT Latitude Longitude Course Direction KTS MPH feet Rate Location/Type
Sun 12:38:38 PM 44.0533 -103.0658 180° South 87 100 3,600  Level Denver Center
Sun 12:39:38 PM 44.0767 -103.0800 336° Northwest 99 114 4,300 614 Climbing Denver Center
Sun 12:40:45 PM 44.0781 -103.0472 87° East 128 147 4,900 567 Climbing Denver Center
Sun 12:41:45 PM 44.0439 -103.0303 160° South 125 144 5,500 545 Climbing Denver Center
Sun 12:42:46 PM 44.0119 -103.0306 180° South 125 144 6,000 541 Climbing Denver Center
Sun 12:43:47 PM 43.9747 -103.0381 188° South 125 144 6,600 496 Climbing Denver Center
Sun 12:44:00 PM 43.8247 -103.1845 180° South  Level Estimated
Sun 12:44:47 PM 43.9442 -103.0467 191° South 123 142 7,000  Level Denver Center
Sun 12:45:13 PM 43.9286 -103.0469 181° South 95 109 7,300 448 Climbing Denver Center
Sun 12:45:54 PM 43.9075 -103.0572 199° South 118 136 7,500 387 Climbing Denver Center
Sun 12:46:15 PM 43.8975 -103.0553 172° South 117 135 7,700 500 Climbing Denver Center
Sun 12:46:54 PM 43.8719 -103.0614 190° South 123 142 8,000 484 Climbing Denver Center
Sun 12:47:17 PM 43.8600 -103.0619 182° South 117 135 8,200 492 Climbing Denver Center
Sun 12:47:55 PM 43.8383 -103.0647 185° South 122 140 8,500 484 Climbing Denver Center
Sun 12:48:19 PM 43.8281 -103.0642 178° South 117 135 8,700 490 Climbing Denver Center
Sun 12:48:44 PM 43.8131 -103.0661 185° South 118 136 8,900 381 Climbing Denver Center
Sun 12:49:22 PM 43.7903 -103.0669 182° South 117 135 9,100 400 Climbing Denver Center
Sun 12:49:44 PM 43.7775 -103.0703 191° South 120 138 9,300 393 Climbing Denver Center
Sun 12:50:23 PM 43.7583 -103.0672 173° South 117 135 9,500 295 Climbing Denver Center
Sun 12:50:45 PM 43.7431 -103.0681 182° South 124 143 9,600 387 Climbing Denver Center
Sun 12:51:25 PM 43.7200 -103.0658 176° South 118 136 9,900 300 Climbing Denver Center
Sun 12:51:45 PM 43.7072 -103.0694 192° South 124 143 9,900 194 Level Denver Center
Sun 12:52:27 PM 43.6861 -103.0689 179° South 122 140 10,100 173 Climbing Denver Center
Sun 12:53:29 PM 43.6461 -103.0817 193° South 128 147 10,200 -48 Climbing Denver Center
Sun 12:54:32 PM 43.6056 -103.0939 192° South 142 163 10,000 -96 Descending Denver Center
Sun 12:55:34 PM 43.5611 -103.1008 186° South 155 178 10,000  Level Denver Center
Sun 12:56:36 PM 43.5117 -103.1100 188° South 160 184 10,000  Level Denver Center
Sun 12:57:38 PM 43.4717 -103.1178 188° South 159 183 10,000  Level Denver Center
Sun 12:58:40 PM 43.4267 -103.1272 189° South 152 175 10,000  Level Denver Center
Sun 12:59:42 PM 43.3869 -103.1339 187° South 152 175 10,000  Level Denver Center
Sun 01:00:44 PM 43.3406 -103.1422 187° South 152 175 10,000  Level Denver Center
Sun 01:01:46 PM 43.3006 -103.1525 191° South 152 175 10,000  Level Denver Center
Sun 01:02:48 PM 43.2544 -103.1636 190° South 152 175 10,000  Level Denver Center
Sun 01:03:50 PM 43.2139 -103.1736 190° South 152 175 10,000  Level Denver Center
Sun 01:04:52 PM 43.1672 -103.1828 188° South 152 175 10,000  Level Denver Center
Sun 01:05:55 PM 43.1275 -103.1986 196° South 152 175 10,000  Level Denver Center
Sun 01:06:57 PM 43.0900 -103.2364 216° Southwest 153 176 10,000  Level Denver Center
Sun 01:07:59 PM 43.0578 -103.2661 214° Southwest 151 174 10,000  Level Denver Center
Sun 01:09:01 PM 43.0153 -103.2914 204° Southwest 151 174 10,000  Level Denver Center
Sun 01:10:03 PM 42.9781 -103.3128 203° Southwest 150 173 10,000  Level Denver Center
Sun 01:11:05 PM 42.9378 -103.3461 211° Southwest 150 173 10,000  Level Denver Center
Sun 01:12:07 PM 42.9025 -103.3725 209° Southwest 151 174 10,000  Level Denver Center
Sun 01:13:09 PM 42.8664 -103.3958 205° Southwest 150 173 10,000  Level Denver Center
Sun 01:14:11 PM 42.8247 -103.4236 206° Southwest 150 173 10,000  Level Denver Center
Sun 01:15:13 PM 42.7911 -103.4492 209° Southwest 150 173 10,000  Level Denver Center
Sun 01:16:16 PM 42.7497 -103.4775 207° Southwest 150 173 10,000  Level Denver Center
Sun 01:17:18 PM 42.7139 -103.4994 204° Southwest 150 173 10,000  Level Denver Center
Sun 01:18:20 PM 42.6742 -103.5256 206° Southwest 149 171 10,000  Level Denver Center
Sun 01:19:22 PM 42.6414 -103.5508 210° Southwest 147 169 10,000  Level Denver Center
Sun 01:20:24 PM 42.6028 -103.5800 209° Southwest 145 167 10,000  Level Denver Center
Sun 01:21:26 PM 42.5706 -103.6019 207° Southwest 142 163 10,000  Level Denver Center
Sun 01:22:28 PM 42.5317 -103.6297 208° Southwest 141 162 10,000  Level Denver Center
Sun 01:23:30 PM 42.4978 -103.6564 210° Southwest 141 162 10,000  Level Denver Center
Sun 01:24:33 PM 42.4569 -103.6867 209° Southwest 144 166 10,000  Level Denver Center
Sun 01:25:34 PM 42.4206 -103.7081 203° Southwest 145 167 10,000  Level Denver Center
Sun 01:26:37 PM 42.3803 -103.7336 205° Southwest 145 167 10,000  Level Denver Center
Sun 01:27:39 PM 42.3472 -103.7594 210° Southwest 145 167 10,000  Level Denver Center
Sun 01:28:41 PM 42.3139 -103.7844 209° Southwest 145 167 10,000  Level Denver Center
Sun 01:29:43 PM 42.2756 -103.8122 208° Southwest 145 167 10,000  Level Denver Center
Sun 01:30:45 PM 42.2419 -103.8336 205° Southwest 144 166 10,000  Level Denver Center
Sun 01:31:47 PM 42.2039 -103.8578 205° Southwest 140 161 10,000  Level Denver Center
Sun 01:32:49 PM 42.1706 -103.8811 207° Southwest 140 161 10,000  Level Denver Center
Sun 01:33:51 PM 42.1314 -103.9078 207° Southwest 140 161 10,000  Level Denver Center
Sun 01:34:53 PM 42.0964 -103.9306 206° Southwest 140 161 10,000  Level Denver Center
Sun 01:35:56 PM 42.0569 -103.9583 208° Southwest 140 161 10,000  Level Denver Center
Sun 01:36:58 PM 42.0233 -103.9803 206° Southwest 140 161 10,000  Level Denver Center
Sun 01:38:00 PM 41.9850 -104.0069 207° Southwest 140 161 10,000 48 Level Denver Center
Sun 01:39:02 PM 41.9517 -104.0281 205° Southwest 140 161 10,100 48 Climbing Denver Center
Sun 01:40:04 PM 41.9131 -104.0542 207° Southwest 140 161 10,100  Level Denver Center
Sun 01:41:06 PM 41.8803 -104.0781 208° Southwest 140 161 10,100  Level Denver Center
Sun 01:42:08 PM 41.8478 -104.1028 210° Southwest 140 161 10,100  Level Denver Center
Sun 01:43:10 PM 41.8081 -104.1281 205° Southwest 140 161 10,100  Level Denver Center
Sun 01:44:12 PM 41.7761 -104.1506 208° Southwest 140 161 10,100 -48 Level Denver Center
Sun 01:45:15 PM 41.7369 -104.1783 208° Southwest 140 161 10,000 -48 Descending Denver Center
Sun 01:46:17 PM 41.7025 -104.2022 207° Southwest 140 161 10,000  Level Denver Center
Sun 01:47:19 PM 41.6633 -104.2286 207° Southwest 140 161 10,000  Level Denver Center
Sun 01:48:21 PM 41.6289 -104.2492 204° Southwest 141 162 10,000  Level Denver Center
Sun 01:49:23 PM 41.5900 -104.2761 202° Southwest 141 162 10,000  Level Denver Center
Sun 01:50:00 PM 41.5709 -104.2809 202° Southwest  Level FlightAware Approximate
Sun 01:50:25 PM 41.5583 -104.2989 208° Southwest 140 161 10,000  Level Denver Center
Sun 01:51:27 PM 41.5200 -104.3272 209° Southwest 140 161 10,000  Level Denver Center
Sun 01:52:29 PM 41.4869 -104.3478 205° Southwest 139 160 10,000 48 Level Denver Center
Sun 01:53:31 PM 41.4475 -104.3714 204° Southwest 139 160 10,100  Climbing Denver Center
Sun 02:10:53 PM 40.9333 -104.8667 206° Southwest 144 166 10,000 -5 Descending Denver TRACON
Sun 02:11:00 PM 40.8456 -104.7419 207° Southwest  Level FlightAware Approximate
Sun 02:11:53 PM 40.9000 -104.8833 201° Southwest 138 159 10,000  Level Denver TRACON
Sun 02:12:00 PM 40.8117 -104.7644 207° Southwest  Level FlightAware Approximate
Sun 02:13:00 PM 40.7778 -104.7869 206° Southwest  Level FlightAware Approximate
Sun 02:13:00 PM 40.8584 -104.8942 191° South  Level FlightAware Approximate
Sun 02:14:00 PM 40.7438 -104.8092 206° Southwest  Level FlightAware Approximate
Sun 02:15:00 PM 40.7098 -104.8314 206° Southwest  Level FlightAware Approximate
Sun 02:16:00 PM 40.6757 -104.8535 206° Southwest  Level FlightAware Approximate
Sun 02:20:00 PM 40.5978 -104.9619 191° South  Level FlightAware Approximate
Sun 02:21:00 PM 40.5605 -104.9715 191° South  Level FlightAware Approximate
Sun 02:22:00 PM 40.5239 -104.9849 206° Southwest  Level Estimated
Sun 02:23:00 PM 40.4874 -104.9983 196° South  Level Estimated

Login

Don't have an account? Register now (free) for customized features, flight alerts, and more!